createdAt,value
2022-09-28T00:00:11.062Z,98667.82
2022-09-28T00:01:18.066Z,98664.65
2022-09-28T00:02:11.177Z,98669.74
2022-09-28T00:03:11.117Z,98667.55
2022-09-28T00:04:11.069Z,98665.30
2022-09-28T00:05:11.061Z,98668.48
2022-09-28T00:06:11.058Z,98670.77
2022-09-28T00:07:11.066Z,98667.61
2022-09-28T00:08:11.061Z,98671.04
2022-09-28T00:09:11.060Z,98666.06
2022-09-28T00:10:11.060Z,98672.71
2022-09-28T00:11:12.066Z,98668.69
2022-09-28T00:12:11.060Z,98672.71
2022-09-28T00:13:11.063Z,98671.52
2022-09-28T00:14:11.064Z,98671.46
2022-09-28T00:15:11.059Z,98672.45
2022-09-28T00:16:15.080Z,98670.44
2022-09-28T00:17:11.063Z,98668.68
2022-09-28T00:18:11.059Z,98670.53
2022-09-28T00:19:11.067Z,98671.12
2022-09-28T00:20:11.063Z,98669.83
2022-09-28T00:21:11.054Z,98669.40
2022-09-28T00:22:11.060Z,98670.54
2022-09-28T00:23:11.059Z,98672.71
2022-09-28T00:24:15.252Z,98670.69
2022-09-28T00:25:11.057Z,98675.98
2022-09-28T00:26:11.065Z,98675.10
2022-09-28T00:27:11.056Z,98676.47
2022-09-28T00:28:11.056Z,98675.98
2022-09-28T00:29:15.120Z,98675.51
2022-09-28T00:30:11.057Z,98680.78
2022-09-28T00:31:11.137Z,98672.89
2022-09-28T00:32:13.061Z,98679.91
2022-09-28T00:33:11.056Z,98677.24
2022-09-28T00:34:11.059Z,98674.99
2022-09-28T00:35:11.066Z,98674.89
2022-09-28T00:36:11.058Z,98674.12
2022-09-28T00:37:11.059Z,98672.59
2022-09-28T00:38:13.059Z,98672.39
2022-09-28T00:39:11.058Z,98668.37
2022-09-28T00:40:11.062Z,98669.23
2022-09-28T00:41:12.066Z,98668.73
2022-09-28T00:42:19.056Z,98674.14
2022-09-28T00:43:20.061Z,98669.50
2022-09-28T00:44:19.058Z,98672.34
2022-09-28T00:45:12.068Z,98672.37
2022-09-28T00:46:17.083Z,98672.00
2022-09-28T00:47:19.055Z,98674.33
2022-09-28T00:48:11.062Z,98675.38
2022-09-28T00:49:15.081Z,98674.94
2022-09-28T00:50:17.060Z,98674.12
2022-09-28T00:51:12.056Z,98671.82
2022-09-28T00:52:14.066Z,98674.88
2022-09-28T00:53:19.058Z,98673.04
2022-09-28T00:54:11.059Z,98675.33
2022-09-28T00:55:17.065Z,98677.34
2022-09-28T00:56:14.061Z,98677.23
2022-09-28T00:57:11.058Z,98677.80
2022-09-28T00:58:12.060Z,98678.08
2022-09-28T00:59:11.069Z,98678.86
2022-09-28T01:00:11.058Z,98682.46
2022-09-28T01:01:11.085Z,98682.19
2022-09-28T01:02:11.131Z,98680.99
2022-09-28T01:03:11.058Z,98680.80
2022-09-28T01:04:11.063Z,98683.17
2022-09-28T01:05:11.070Z,98683.69
2022-09-28T01:06:11.060Z,98679.77
2022-09-28T01:07:11.061Z,98684.35
2022-09-28T01:08:11.067Z,98680.26
2022-09-28T01:09:11.062Z,98685.18
2022-09-28T01:10:11.059Z,98682.29
2022-09-28T01:11:11.060Z,98676.84
2022-09-28T01:12:11.062Z,98681.79
2022-09-28T01:13:11.059Z,98679.71
2022-09-28T01:14:11.076Z,98675.23
2022-09-28T01:15:11.071Z,98676.66
2022-09-28T01:16:19.180Z,98678.41
2022-09-28T01:17:15.062Z,98677.06
2022-09-28T01:18:19.079Z,98676.05
2022-09-28T01:19:19.063Z,98672.30
2022-09-28T01:20:21.063Z,98675.65
2022-09-28T01:21:20.059Z,98674.06
2022-09-28T01:22:19.061Z,98674.94
2022-09-28T01:23:19.063Z,98677.64
2022-09-28T01:24:25.062Z,98679.55
2022-09-28T01:25:21.059Z,98670.72
2022-09-28T01:26:19.061Z,98675.91
2022-09-28T01:27:21.061Z,98675.48
2022-09-28T01:28:15.068Z,98675.02
2022-09-28T01:29:19.058Z,98671.06
2022-09-28T01:30:14.054Z,98670.60
2022-09-28T01:31:15.224Z,98673.07
2022-09-28T01:32:21.059Z,98675.73
2022-09-28T01:33:13.057Z,98674.51
2022-09-28T01:34:16.059Z,98672.29
2022-09-28T01:35:17.061Z,98673.01
2022-09-28T01:36:19.060Z,98671.10
2022-09-28T01:37:14.058Z,98668.89
2022-09-28T01:38:18.061Z,98670.34
2022-09-28T01:39:14.232Z,98671.01
2022-09-28T01:40:11.062Z,98669.32
2022-09-28T01:41:11.057Z,98671.80
2022-09-28T01:42:14.060Z,98670.68
2022-09-28T01:43:16.061Z,98666.93
2022-09-28T01:44:12.060Z,98665.44
2022-09-28T01:45:18.063Z,98666.83
2022-09-28T01:46:21.096Z,98666.95
2022-09-28T01:47:12.068Z,98664.44
2022-09-28T01:48:12.081Z,98665.48
2022-09-28T01:49:14.124Z,98665.66
2022-09-28T01:50:14.062Z,98667.56
2022-09-28T01:51:14.059Z,98663.53
2022-09-28T01:52:19.064Z,98666.63
2022-09-28T01:53:18.067Z,98661.32
2022-09-28T01:54:16.063Z,98663.16
2022-09-28T01:55:23.059Z,98659.99
2022-09-28T01:56:19.056Z,98659.46
2022-09-28T01:57:21.062Z,98660.55
2022-09-28T01:58:17.069Z,98660.58
2022-09-28T01:59:16.161Z,98664.85
2022-09-28T02:00:14.061Z,98665.82
2022-09-28T02:01:16.114Z,98662.27
2022-09-28T02:02:15.142Z,98663.96
2022-09-28T02:03:19.061Z,98658.64
2022-09-28T02:04:19.063Z,98662.62
2022-09-28T02:05:15.062Z,98659.52
2022-09-28T02:06:17.069Z,98657.88
2022-09-28T02:07:16.064Z,98662.71
2022-09-28T02:08:19.058Z,98664.34
2022-09-28T02:09:13.153Z,98659.29
2022-09-28T02:10:19.061Z,98664.72
2022-09-28T02:11:14.062Z,98661.07
2022-09-28T02:12:19.062Z,98664.00
2022-09-28T02:13:16.069Z,98660.76
2022-09-28T02:14:12.063Z,98659.55
2022-09-28T02:15:19.062Z,98659.00
2022-09-28T02:16:21.086Z,98658.13
2022-09-28T02:17:11.066Z,98659.27
2022-09-28T02:18:11.064Z,98659.35
2022-09-28T02:19:16.082Z,98658.67
2022-09-28T02:20:11.063Z,98657.16
2022-09-28T02:21:17.063Z,98658.68
2022-09-28T02:22:19.056Z,98653.68
2022-09-28T02:23:11.057Z,98658.95
2022-09-28T02:24:21.515Z,98658.20
2022-09-28T02:25:23.066Z,98660.46
2022-09-28T02:26:13.058Z,98654.86
2022-09-28T02:27:15.057Z,98653.94
2022-09-28T02:28:11.056Z,98656.78
2022-09-28T02:29:11.105Z,98657.13
2022-09-28T02:30:11.056Z,98658.14
2022-09-28T02:31:11.153Z,98659.55
2022-09-28T02:32:11.059Z,98654.27
2022-09-28T02:33:21.056Z,98655.96
2022-09-28T02:34:11.059Z,98657.30
2022-09-28T02:35:14.066Z,98653.54
2022-09-28T02:36:11.060Z,98652.26
2022-09-28T02:37:11.054Z,98655.18
2022-09-28T02:38:11.066Z,98654.25
2022-09-28T02:39:15.193Z,98652.45
2022-09-28T02:40:21.094Z,98653.78
2022-09-28T02:41:21.058Z,98657.52
2022-09-28T02:42:19.062Z,98660.73
2022-09-28T02:43:21.068Z,98659.37
2022-09-28T02:44:19.059Z,98656.71
2022-09-28T02:45:21.067Z,98657.38
2022-09-28T02:46:21.063Z,98657.85
2022-09-28T02:47:19.059Z,98656.71
2022-09-28T02:48:27.190Z,98656.60
2022-09-28T02:49:23.524Z,98655.58
2022-09-28T02:50:19.057Z,98659.48
2022-09-28T02:51:21.069Z,98662.31
2022-09-28T02:52:19.059Z,98658.11
2022-09-28T02:53:19.072Z,98661.71
2022-09-28T02:54:21.066Z,98662.12
2022-09-28T02:55:21.057Z,98660.43
2022-09-28T02:56:21.056Z,98658.64
2022-09-28T02:57:19.058Z,98663.76
2022-09-28T02:58:21.081Z,98660.77
2022-09-28T02:59:21.075Z,98664.02
2022-09-28T03:00:17.059Z,98665.05
2022-09-28T03:01:21.138Z,98667.47
2022-09-28T03:02:19.138Z,98664.52
2022-09-28T03:03:19.085Z,98667.35
2022-09-28T03:04:21.061Z,98664.01
2022-09-28T03:05:19.060Z,98665.38
2022-09-28T03:06:19.056Z,98665.78
2022-09-28T03:07:23.073Z,98665.02
2022-09-28T03:08:21.063Z,98662.89
2022-09-28T03:09:18.222Z,98666.86
2022-09-28T03:10:21.063Z,98667.14
2022-09-28T03:11:20.058Z,98666.75
2022-09-28T03:12:12.061Z,98667.95
2022-09-28T03:13:11.062Z,98665.26
2022-09-28T03:14:11.062Z,98665.71
2022-09-28T03:15:19.064Z,98666.84
2022-09-28T03:16:14.122Z,98666.57
2022-09-28T03:17:11.062Z,98668.21
2022-09-28T03:18:11.059Z,98667.48
2022-09-28T03:19:13.101Z,98669.23
2022-09-28T03:20:11.062Z,98668.53
2022-09-28T03:21:11.057Z,98670.21
2022-09-28T03:22:11.055Z,98668.07
2022-09-28T03:23:24.723Z,98672.94
2022-09-28T03:24:13.088Z,98674.52
2022-09-28T03:25:11.058Z,98669.46
2022-09-28T03:26:12.065Z,98671.01
2022-09-28T03:27:11.057Z,98669.11
2022-09-28T03:28:11.059Z,98671.09
2022-09-28T03:29:11.231Z,98671.52
2022-09-28T03:30:11.057Z,98674.41
2022-09-28T03:31:11.137Z,98670.15
2022-09-28T03:32:11.066Z,98672.98
2022-09-28T03:33:11.059Z,98673.41
2022-09-28T03:34:11.063Z,98672.78
2022-09-28T03:35:11.066Z,98672.51
2022-09-28T03:36:11.059Z,98671.21
2022-09-28T03:37:11.058Z,98672.07
2022-09-28T03:38:11.062Z,98674.03
2022-09-28T03:39:11.128Z,98672.07
2022-09-28T03:40:11.059Z,98673.48
2022-09-28T03:41:11.059Z,98674.41
2022-09-28T03:42:11.057Z,98670.59
2022-09-28T03:43:11.060Z,98674.10
2022-09-28T03:44:11.067Z,98674.32
2022-09-28T03:45:11.057Z,98670.68
2022-09-28T03:46:11.130Z,98674.08
2022-09-28T03:47:11.062Z,98669.53
2022-09-28T03:48:11.057Z,98670.94
2022-09-28T03:49:11.142Z,98671.79
2022-09-28T03:50:11.062Z,98669.30
2022-09-28T03:51:12.069Z,98669.08
2022-09-28T03:52:11.059Z,98671.19
2022-09-28T03:53:11.069Z,98671.09
2022-09-28T03:54:11.059Z,98673.14
2022-09-28T03:55:11.061Z,98672.34
2022-09-28T03:56:13.065Z,98673.38
2022-09-28T03:57:11.061Z,98674.19
2022-09-28T03:58:11.060Z,98676.15
2022-09-28T03:59:11.208Z,98677.27
2022-09-28T04:00:11.059Z,98680.91
2022-09-28T04:01:16.418Z,98681.67
2022-09-28T04:02:13.241Z,98682.38
2022-09-28T04:03:11.062Z,98686.00
2022-09-28T04:04:13.061Z,98684.48
2022-09-28T04:05:11.068Z,98683.73
2022-09-28T04:06:11.061Z,98684.19
2022-09-28T04:07:11.062Z,98688.01
2022-09-28T04:08:11.068Z,98689.52
2022-09-28T04:09:11.062Z,98687.97
2022-09-28T04:10:11.062Z,98691.73
2022-09-28T04:11:11.063Z,98691.64
2022-09-28T04:12:11.060Z,98692.57
2022-09-28T04:13:11.063Z,98692.26
2022-09-28T04:14:11.070Z,98694.05
2022-09-28T04:15:11.061Z,98695.67
2022-09-28T04:16:11.152Z,98697.52
2022-09-28T04:17:11.063Z,98695.67
2022-09-28T04:18:13.061Z,98697.40
2022-09-28T04:19:11.062Z,98696.85
2022-09-28T04:20:11.065Z,98693.59
2022-09-28T04:21:12.057Z,98693.12
2022-09-28T04:22:11.056Z,98695.15
2022-09-28T04:23:11.061Z,98692.16
2022-09-28T04:24:11.058Z,98693.55
2022-09-28T04:25:11.059Z,98695.79
2022-09-28T04:26:19.059Z,98697.15
2022-09-28T04:27:15.058Z,98693.17
2022-09-28T04:28:15.055Z,98694.32
2022-09-28T04:29:15.059Z,98693.37
2022-09-28T04:30:11.065Z,98695.03
2022-09-28T04:31:11.061Z,98696.83
2022-09-28T04:32:11.061Z,98695.06
2022-09-28T04:33:11.062Z,98694.68
2022-09-28T04:34:11.058Z,98696.81
2022-09-28T04:35:11.062Z,98696.16
2022-09-28T04:36:11.061Z,98693.06
2022-09-28T04:37:11.059Z,98695.20
2022-09-28T04:38:11.058Z,98695.59
2022-09-28T04:39:11.061Z,98698.86
2022-09-28T04:40:11.058Z,98694.65
2022-09-28T04:41:11.061Z,98694.59
2022-09-28T04:42:11.061Z,98695.79
2022-09-28T04:43:11.059Z,98698.51
2022-09-28T04:44:11.061Z,98697.54
2022-09-28T04:45:11.062Z,98697.04
2022-09-28T04:46:11.135Z,98698.24
2022-09-28T04:47:11.097Z,98698.41
2022-09-28T04:48:11.064Z,98696.40
2022-09-28T04:49:11.159Z,98700.64
2022-09-28T04:50:11.061Z,98698.25
2022-09-28T04:51:11.067Z,98700.10
2022-09-28T04:52:17.172Z,98701.21
2022-09-28T04:53:13.087Z,98700.72
2022-09-28T04:54:11.067Z,98704.07
2022-09-28T04:55:14.058Z,98703.66
2022-09-28T04:56:12.064Z,98701.59
2022-09-28T04:57:11.067Z,98700.56
2022-09-28T04:58:11.075Z,98697.68
2022-09-28T04:59:11.130Z,98694.96
2022-09-28T05:00:11.063Z,98700.67
2022-09-28T05:01:12.152Z,98698.11
2022-09-28T05:02:11.140Z,98698.85
2022-09-28T05:03:11.063Z,98698.65
2022-09-28T05:04:11.061Z,98699.38
2022-09-28T05:05:11.057Z,98697.21
2022-09-28T05:06:15.070Z,98699.38
2022-09-28T05:07:11.063Z,98697.67
2022-09-28T05:08:11.059Z,98700.55
2022-09-28T05:09:11.099Z,98702.29
2022-09-28T05:10:11.069Z,98698.15
2022-09-28T05:11:12.060Z,98699.89
2022-09-28T05:12:11.062Z,98698.54
2022-09-28T05:13:11.069Z,98701.31
2022-09-28T05:14:11.061Z,98696.55
2022-09-28T05:15:11.063Z,98700.03
2022-09-28T05:16:11.119Z,98694.16
2022-09-28T05:17:11.061Z,98696.39
2022-09-28T05:18:11.063Z,98694.91
2022-09-28T05:19:11.071Z,98696.63
2022-09-28T05:20:11.063Z,98694.02
2022-09-28T05:21:15.061Z,98694.67
2022-09-28T05:22:15.077Z,98694.12
2022-09-28T05:23:13.059Z,98691.40
2022-09-28T05:24:11.058Z,98695.16
2022-09-28T05:25:11.061Z,98694.24
2022-09-28T05:26:11.058Z,98694.07
2022-09-28T05:27:11.057Z,98695.11
2022-09-28T05:28:11.059Z,98694.21
2022-09-28T05:29:11.101Z,98696.66
2022-09-28T05:30:11.059Z,98696.11
2022-09-28T05:31:11.068Z,98695.05
2022-09-28T05:32:11.124Z,98695.85
2022-09-28T05:33:11.059Z,98695.41
2022-09-28T05:34:11.060Z,98696.26
2022-09-28T05:35:11.062Z,98695.78
2022-09-28T05:36:13.062Z,98697.09
2022-09-28T05:37:11.083Z,98695.12
2022-09-28T05:38:11.060Z,98693.65
2022-09-28T05:39:11.178Z,98693.17
2022-09-28T05:40:11.058Z,98691.05
2022-09-28T05:41:11.179Z,98691.79
2022-09-28T05:42:11.084Z,98695.25
2022-09-28T05:43:11.059Z,98695.57
2022-09-28T05:44:11.122Z,98694.61
2022-09-28T05:45:11.057Z,98697.05
2022-09-28T05:46:11.198Z,98694.57
2022-09-28T05:47:11.065Z,98693.98
2022-09-28T05:48:11.076Z,98690.93
2022-09-28T05:49:11.060Z,98692.95
2022-09-28T05:50:11.070Z,98688.61
2022-09-28T05:51:11.063Z,98690.18
2022-09-28T05:52:11.059Z,98689.61
2022-09-28T05:53:11.066Z,98689.84
2022-09-28T05:54:11.064Z,98689.02
2022-09-28T05:55:11.071Z,98692.46
2022-09-28T05:56:11.067Z,98690.93
2022-09-28T05:57:11.061Z,98687.70
2022-09-28T05:58:11.058Z,98690.79
2022-09-28T05:59:11.068Z,98691.96
2022-09-28T06:00:12.068Z,98687.98
2022-09-28T06:01:11.099Z,98692.06
2022-09-28T06:02:11.085Z,98690.84
2022-09-28T06:03:13.062Z,98686.92
2022-09-28T06:04:11.166Z,98692.09
2022-09-28T06:05:11.062Z,98690.22
2022-09-28T06:06:11.059Z,98691.23
2022-09-28T06:07:11.056Z,98689.84
2022-09-28T06:08:11.070Z,98693.05
2022-09-28T06:09:11.062Z,98692.55
2022-09-28T06:10:11.056Z,98694.40
2022-09-28T06:11:11.063Z,98697.29
2022-09-28T06:12:11.061Z,98699.57
2022-09-28T06:13:11.059Z,98697.06
2022-09-28T06:14:11.163Z,98696.52
2022-09-28T06:15:11.061Z,98699.19
2022-09-28T06:16:14.112Z,98702.43
2022-09-28T06:17:11.061Z,98708.30
2022-09-28T06:18:13.062Z,98706.02
2022-09-28T06:19:11.063Z,98708.14
2022-09-28T06:20:11.060Z,98711.05
2022-09-28T06:21:12.058Z,98708.14
2022-09-28T06:22:11.057Z,98704.70
2022-09-28T06:23:13.057Z,98703.83
2022-09-28T06:24:11.091Z,98704.89
2022-09-28T06:25:11.056Z,98701.57
2022-09-28T06:26:11.058Z,98703.31
2022-09-28T06:27:11.061Z,98706.85
2022-09-28T06:28:14.078Z,98708.54
2022-09-28T06:29:13.691Z,98708.21
2022-09-28T06:30:11.066Z,98708.07
2022-09-28T06:31:11.149Z,98708.51
2022-09-28T06:32:11.059Z,98709.82
2022-09-28T06:33:12.067Z,98706.11
2022-09-28T06:34:11.173Z,98711.59
2022-09-28T06:35:11.060Z,98708.70
2022-09-28T06:36:11.066Z,98709.89
2022-09-28T06:37:11.059Z,98705.05
2022-09-28T06:38:11.064Z,98705.68
2022-09-28T06:39:11.066Z,98707.93
2022-09-28T06:40:11.064Z,98712.23
2022-09-28T06:41:11.054Z,98713.56
2022-09-28T06:42:11.063Z,98714.75
2022-09-28T06:43:16.061Z,98711.82
2022-09-28T06:44:11.103Z,98715.52
2022-09-28T06:45:11.061Z,98712.46
2022-09-28T06:46:11.101Z,98719.89
2022-09-28T06:47:11.068Z,98719.78
2022-09-28T06:48:11.061Z,98717.39
2022-09-28T06:49:16.161Z,98721.27
2022-09-28T06:50:17.891Z,98720.88
2022-09-28T06:51:11.061Z,98723.36
2022-09-28T06:52:11.067Z,98725.15
2022-09-28T06:53:15.061Z,98724.46
2022-09-28T06:54:11.102Z,98726.85
2022-09-28T06:55:11.059Z,98727.91
2022-09-28T06:56:11.065Z,98724.52
2022-09-28T06:57:11.060Z,98731.06
2022-09-28T06:58:12.070Z,98726.85
2022-09-28T06:59:11.063Z,98728.63
2022-09-28T07:00:11.055Z,98730.56
2022-09-28T07:01:11.161Z,98729.74
2022-09-28T07:02:12.098Z,98731.23
2022-09-28T07:03:15.057Z,98732.12
2022-09-28T07:04:11.128Z,98732.50
2022-09-28T07:05:13.060Z,98734.75
2022-09-28T07:06:12.059Z,98731.23
2022-09-28T07:07:13.064Z,98732.20
2022-09-28T07:08:11.061Z,98735.02
2022-09-28T07:09:25.625Z,98733.44
2022-09-28T07:10:13.355Z,98736.06
2022-09-28T07:11:11.068Z,98735.29
2022-09-28T07:12:13.059Z,98738.45
2022-09-28T07:13:32.803Z,98734.50
2022-09-28T07:14:25.373Z,98732.81
2022-09-28T07:15:13.337Z,98737.91
2022-09-28T07:16:11.071Z,98738.96
2022-09-28T07:17:14.057Z,98739.40
2022-09-28T07:18:11.127Z,98738.98
2022-09-28T07:19:11.064Z,98739.53
2022-09-28T07:20:17.760Z,98738.58
2022-09-28T07:21:22.798Z,98733.89
2022-09-28T07:22:17.463Z,98731.50
2022-09-28T07:23:18.349Z,98729.30
2022-09-28T07:24:13.068Z,98731.61
2022-09-28T07:25:11.060Z,98730.55
2022-09-28T07:26:11.056Z,98732.25
2022-09-28T07:27:11.059Z,98731.84
2022-09-28T07:28:11.060Z,98729.65
2022-09-28T07:29:11.059Z,98729.03
2022-09-28T07:30:11.160Z,98732.23
2022-09-28T07:31:11.219Z,98732.25
2022-09-28T07:32:11.058Z,98729.30
2022-09-28T07:33:12.057Z,98732.87
2022-09-28T07:34:11.102Z,98730.19
2022-09-28T07:35:11.065Z,98731.23
2022-09-28T07:36:11.058Z,98731.71
2022-09-28T07:37:11.059Z,98729.90
2022-09-28T07:38:11.065Z,98733.87
2022-09-28T07:39:11.057Z,98733.43
2022-09-28T07:40:15.327Z,98734.73
2022-09-28T07:41:15.059Z,98736.04
2022-09-28T07:42:11.061Z,98733.76
2022-09-28T07:43:11.067Z,98737.66
2022-09-28T07:44:11.214Z,98736.41
2022-09-28T07:45:11.060Z,98738.19
2022-09-28T07:46:13.221Z,98741.42
2022-09-28T07:47:11.058Z,98739.44
2022-09-28T07:49:12.428Z,98738.41
2022-09-28T07:50:11.151Z,98741.01
2022-09-28T07:51:11.059Z,98734.65
2022-09-28T07:52:11.062Z,98737.77
2022-09-28T07:53:11.062Z,98739.11
2022-09-28T07:54:11.060Z,98740.94
2022-09-28T07:55:11.060Z,98747.36
2022-09-28T07:56:13.061Z,98738.58
2022-09-28T07:57:11.062Z,98739.97
2022-09-28T07:58:11.067Z,98745.04
2022-09-28T07:59:11.175Z,98742.08
2022-09-28T08:00:12.060Z,98747.14
2022-09-28T08:01:11.177Z,98746.43
2022-09-28T08:02:11.117Z,98749.26
2022-09-28T08:03:11.063Z,98749.94
2022-09-28T08:04:11.072Z,98753.70
2022-09-28T08:05:11.064Z,98753.03
2022-09-28T08:06:11.060Z,98756.79
2022-09-28T08:07:11.068Z,98755.25
2022-09-28T08:08:11.064Z,98755.54
2022-09-28T08:09:11.154Z,98755.71
2022-09-28T08:10:11.140Z,98757.56
2022-09-28T08:11:14.062Z,98756.19
2022-09-28T08:12:11.060Z,98757.02
2022-09-28T08:13:11.063Z,98759.78
2022-09-28T08:14:11.073Z,98761.25
2022-09-28T08:15:14.064Z,98761.15
2022-09-28T08:16:12.156Z,98761.76
2022-09-28T08:17:11.065Z,98763.83
2022-09-28T08:18:11.060Z,98761.68
2022-09-28T08:19:11.061Z,98762.00
2022-09-28T08:20:15.066Z,98759.01
2022-09-28T08:21:15.058Z,98758.73
2022-09-28T08:22:11.058Z,98759.17
2022-09-28T08:23:11.058Z,98760.00
2022-09-28T08:24:11.168Z,98761.40
2022-09-28T08:25:11.058Z,98760.71
2022-09-28T08:26:14.588Z,98765.57
2022-09-28T08:27:11.057Z,98764.03
2022-09-28T08:28:11.063Z,98764.00
2022-09-28T08:29:11.066Z,98765.25
2022-09-28T08:30:11.059Z,98767.00
2022-09-28T08:31:11.155Z,98766.17
2022-09-28T08:32:11.069Z,98766.48
2022-09-28T08:33:11.057Z,98768.23
2022-09-28T08:34:11.143Z,98766.88
2022-09-28T08:35:11.066Z,98766.69
2022-09-28T08:36:11.060Z,98768.03
2022-09-28T08:37:11.059Z,98764.43
2022-09-28T08:38:11.066Z,98769.60
2022-09-28T08:39:11.061Z,98767.29
2022-09-28T08:40:18.146Z,98768.14
2022-09-28T08:41:19.060Z,98766.40
2022-09-28T08:42:19.087Z,98767.21
2022-09-28T08:43:22.061Z,98768.21
2022-09-28T08:44:15.093Z,98765.63
2022-09-28T08:45:14.055Z,98762.45
2022-09-28T08:46:12.141Z,98761.31
2022-09-28T08:47:21.061Z,98762.66
2022-09-28T08:48:25.064Z,98763.29
2022-09-28T08:49:25.355Z,98761.16
2022-09-28T08:50:18.103Z,98761.39
2022-09-28T08:51:18.068Z,98759.19
2022-09-28T08:52:21.137Z,98762.45
2022-09-28T08:53:19.059Z,98765.54
2022-09-28T08:54:19.115Z,98761.20
2022-09-28T08:55:22.061Z,98759.46
2022-09-28T08:56:17.063Z,98762.91
2022-09-28T08:57:19.062Z,98767.25
2022-09-28T08:58:17.059Z,98767.25
2022-09-28T08:59:18.060Z,98766.76
2022-09-28T09:00:19.060Z,98766.46
2022-09-28T09:01:13.115Z,98766.68
2022-09-28T09:02:19.121Z,98765.69
2022-09-28T09:03:21.245Z,98766.48
2022-09-28T09:04:11.178Z,98765.44
2022-09-28T09:05:15.096Z,98767.75
2022-09-28T09:06:19.061Z,98766.76
2022-09-28T09:07:19.065Z,98769.14
2022-09-28T09:08:19.064Z,98766.14
2022-09-28T09:09:22.063Z,98768.38
2022-09-28T09:10:22.064Z,98765.02
2022-09-28T09:11:22.062Z,98765.33
2022-09-28T09:12:19.058Z,98768.02
2022-09-28T09:13:19.065Z,98765.28
2022-09-28T09:14:19.115Z,98764.79
2022-09-28T09:15:21.064Z,98764.32
2022-09-28T09:16:19.085Z,98766.06
2022-09-28T09:17:19.061Z,98765.07
2022-09-28T09:18:20.168Z,98763.54
2022-09-28T09:19:22.070Z,98766.50
2022-09-28T09:20:18.064Z,98766.80
2022-09-28T09:21:16.058Z,98767.79
2022-09-28T09:22:21.056Z,98763.34
2022-09-28T09:23:18.072Z,98763.71
2022-09-28T09:24:19.205Z,98760.25
2022-09-28T09:25:18.059Z,98764.46
2022-09-28T09:26:21.926Z,98764.85
2022-09-28T09:27:20.334Z,98761.36
2022-09-28T09:28:19.059Z,98765.60
2022-09-28T09:29:22.065Z,98766.92
2022-09-28T09:30:18.032Z,98763.14
2022-09-28T09:31:21.952Z,98764.20
2022-09-28T09:32:19.058Z,98763.59
2022-09-28T09:33:19.060Z,98762.87
2022-09-28T09:34:19.193Z,98765.36
2022-09-28T09:35:21.315Z,98764.63
2022-09-28T09:36:19.061Z,98768.48
2022-09-28T09:37:22.058Z,98766.39
2022-09-28T09:38:19.061Z,98762.71
2022-09-28T09:39:19.065Z,98762.54
2022-09-28T09:40:19.215Z,98764.43
2022-09-28T09:41:22.083Z,98765.00
2022-09-28T09:42:22.059Z,98764.37
2022-09-28T09:43:22.060Z,98763.14
2022-09-28T09:44:19.172Z,98758.63
2022-09-28T09:45:19.058Z,98760.77
2022-09-28T09:46:19.113Z,98759.33
2022-09-28T09:47:13.062Z,98759.62
2022-09-28T09:48:19.060Z,98763.75
2022-09-28T09:49:19.061Z,98769.32
2022-09-28T09:50:20.070Z,98761.29
2022-09-28T09:51:19.063Z,98767.16
2022-09-28T09:52:22.088Z,98761.79
2022-09-28T09:53:19.065Z,98761.73
2022-09-28T09:54:20.062Z,98765.40
2022-09-28T09:55:24.174Z,98767.75
2022-09-28T09:56:19.162Z,98769.73
2022-09-28T09:57:19.063Z,98768.83
2022-09-28T09:58:14.060Z,98771.59
2022-09-28T09:59:14.110Z,98767.20
2022-09-28T10:00:15.074Z,98766.32
2022-09-28T10:01:14.141Z,98762.82
2022-09-28T10:02:19.079Z,98763.99
2022-09-28T10:03:21.063Z,98766.48
2022-09-28T10:04:17.073Z,98764.95
2022-09-28T10:05:23.063Z,98765.06
2022-09-28T10:06:16.061Z,98762.43
2022-09-28T10:07:15.064Z,98763.15
2022-09-28T10:08:19.064Z,98763.96
2022-09-28T10:09:20.066Z,98764.96
2022-09-28T10:10:18.127Z,98766.58
2022-09-28T10:11:20.059Z,98762.79
2022-09-28T10:12:19.064Z,98763.45
2022-09-28T10:13:11.064Z,98764.25
2022-09-28T10:14:18.065Z,98762.40
2022-09-28T10:15:14.063Z,98764.68
2022-09-28T10:16:11.066Z,98765.20
2022-09-28T10:17:14.069Z,98760.86
2022-09-28T10:18:15.061Z,98760.50
2022-09-28T10:19:12.066Z,98763.61
2022-09-28T10:20:13.073Z,98762.33
2022-09-28T10:21:14.058Z,98770.70
2022-09-28T10:22:17.060Z,98760.70
2022-09-28T10:23:21.081Z,98760.56
2022-09-28T10:24:18.059Z,98759.44
2022-09-28T10:25:12.059Z,98762.44
2022-09-28T10:26:22.852Z,98756.39
2022-09-28T10:27:18.082Z,98758.36
2022-09-28T10:28:18.070Z,98760.74
2022-09-28T10:29:16.127Z,98754.66
2022-09-28T10:30:20.059Z,98759.04
2022-09-28T10:31:19.062Z,98756.60
2022-09-28T10:32:18.058Z,98757.06
2022-09-28T10:33:19.071Z,98758.94
2022-09-28T10:34:12.065Z,98761.95
2022-09-28T10:35:19.058Z,98759.16
2022-09-28T10:36:11.063Z,98762.40
2022-09-28T10:37:12.072Z,98763.09
2022-09-28T10:38:15.068Z,98761.28
2022-09-28T10:39:19.058Z,98765.15
2022-09-28T10:40:19.147Z,98762.66
2022-09-28T10:41:13.068Z,98767.54
2022-09-28T10:42:11.088Z,98762.14
2022-09-28T10:43:19.063Z,98762.79
2022-09-28T10:44:16.105Z,98761.80
2022-09-28T10:45:19.073Z,98757.50
2022-09-28T10:46:11.133Z,98760.67
2022-09-28T10:47:14.068Z,98760.82
2022-09-28T10:48:19.059Z,98759.36
2022-09-28T10:49:17.072Z,98758.45
2022-09-28T10:50:19.063Z,98761.05
2022-09-28T10:51:11.060Z,98761.02
2022-09-28T10:52:20.063Z,98756.67
2022-09-28T10:53:18.070Z,98750.24
2022-09-28T10:54:15.255Z,98755.06
2022-09-28T10:55:19.069Z,98750.96
2022-09-28T10:56:19.063Z,98759.45
2022-09-28T10:57:19.063Z,98759.65
2022-09-28T10:58:22.070Z,98758.61
2022-09-28T10:59:19.064Z,98752.86
2022-09-28T11:00:19.062Z,98755.60
2022-09-28T11:01:13.156Z,98747.58
2022-09-28T11:02:19.106Z,98749.67
2022-09-28T11:03:19.076Z,98746.99
2022-09-28T11:04:19.156Z,98745.18
2022-09-28T11:05:19.064Z,98750.41
2022-09-28T11:06:11.065Z,98745.59
2022-09-28T11:07:18.070Z,98750.12
2022-09-28T11:08:15.063Z,98747.57
2022-09-28T11:09:19.154Z,98750.96
2022-09-28T11:10:21.068Z,98753.06
2022-09-28T11:11:15.071Z,98752.93
2022-09-28T11:12:15.062Z,98756.86
2022-09-28T11:13:11.061Z,98753.98
2022-09-28T11:14:19.073Z,98753.85
2022-09-28T11:15:17.065Z,98754.04
2022-09-28T11:16:15.146Z,98756.46
2022-09-28T11:17:15.067Z,98758.21
2022-09-28T11:18:18.073Z,98756.99
2022-09-28T11:19:19.201Z,98756.10
2022-09-28T11:20:22.411Z,98758.38
2022-09-28T11:21:16.096Z,98764.00
2022-09-28T11:22:19.060Z,98760.58
2022-09-28T11:23:22.066Z,98763.24
2022-09-28T11:24:21.498Z,98760.01
2022-09-28T11:25:21.055Z,98757.67
2022-09-28T11:26:14.823Z,98759.62
2022-09-28T11:27:21.077Z,98754.68
2022-09-28T11:28:19.065Z,98751.21
2022-09-28T11:29:21.059Z,98756.96
2022-09-28T11:30:22.091Z,98759.98
2022-09-28T11:31:11.143Z,98757.16
2022-09-28T11:32:15.520Z,98762.82
2022-09-28T11:33:22.067Z,98769.46
2022-09-28T11:34:19.141Z,98760.17
2022-09-28T11:35:19.057Z,98758.87
2022-09-28T11:36:22.059Z,98765.66
2022-09-28T11:37:25.059Z,98763.70
2022-09-28T11:38:22.064Z,98758.48
2022-09-28T11:39:18.276Z,98760.65
2022-09-28T11:40:19.124Z,98756.24
2022-09-28T11:41:19.060Z,98758.96
2022-09-28T11:42:22.063Z,98757.03
2022-09-28T11:43:22.059Z,98755.48
2022-09-28T11:44:19.311Z,98758.85
2022-09-28T11:45:19.062Z,98757.05